sensor_id;sensor_type;location;lat;lon;timestamp;pressure;altitude;pressure_sealevel;temperature;humidity
73267;BME280;61495;53.400;7.608;2023-05-17T00:00:52;102170.72;;;9.39;74.09
73267;BME280;61495;53.400;7.608;2023-05-17T00:03:23;102182.78;;;9.43;74.82
73267;BME280;61495;53.400;7.608;2023-05-17T00:05:48;102183.94;;;9.41;74.20
73267;BME280;61495;53.400;7.608;2023-05-17T00:08:13;102184.41;;;9.36;74.57
73267;BME280;61495;53.400;7.608;2023-05-17T00:10:39;102183.75;;;9.34;74.55
73267;BME280;61495;53.400;7.608;2023-05-17T00:13:04;102189.44;;;9.31;74.71
73267;BME280;61495;53.400;7.608;2023-05-17T00:15:30;102182.75;;;9.27;76.11
73267;BME280;61495;53.400;7.608;2023-05-17T00:17:55;102181.09;;;9.26;74.66
73267;BME280;61495;53.400;7.608;2023-05-17T00:20:21;102179.22;;;9.19;74.55
73267;BME280;61495;53.400;7.608;2023-05-17T00:22:46;102176.72;;;9.17;74.99
73267;BME280;61495;53.400;7.608;2023-05-17T00:25:12;102192.06;;;9.15;75.05
73267;BME280;61495;53.400;7.608;2023-05-17T00:27:37;102198.25;;;9.16;74.52
73267;BME280;61495;53.400;7.608;2023-05-17T00:30:03;102206.47;;;9.14;74.81
73267;BME280;61495;53.400;7.608;2023-05-17T00:32:30;102205.09;;;9.10;74.67
73267;BME280;61495;53.400;7.608;2023-05-17T00:35:00;102210.78;;;9.07;74.46
73267;BME280;61495;53.400;7.608;2023-05-17T00:37:25;102209.41;;;9.03;74.35
73267;BME280;61495;53.400;7.608;2023-05-17T00:39:51;102196.72;;;8.97;74.80
73267;BME280;61495;53.400;7.608;2023-05-17T00:42:18;102195.38;;;8.93;74.43
73267;BME280;61495;53.400;7.608;2023-05-17T00:44:43;102205.38;;;8.91;75.33
73267;BME280;61495;53.400;7.608;2023-05-17T00:47:08;102198.00;;;8.85;74.73
73267;BME280;61495;53.400;7.608;2023-05-17T00:49:34;102200.66;;;8.77;75.02
73267;BME280;61495;53.400;7.608;2023-05-17T00:51:59;102197.47;;;8.73;75.63
73267;BME280;61495;53.400;7.608;2023-05-17T00:54:25;102199.31;;;8.73;75.10
73267;BME280;61495;53.400;7.608;2023-05-17T00:56:53;102202.00;;;8.73;76.09
73267;BME280;61495;53.400;7.608;2023-05-17T00:59:22;102203.44;;;8.67;75.56
73267;BME280;61495;53.400;7.608;2023-05-17T01:01:47;102205.31;;;8.67;75.91
73267;BME280;61495;53.400;7.608;2023-05-17T01:04:13;102201.63;;;8.68;76.04
73267;BME280;61495;53.400;7.608;2023-05-17T01:06:38;102207.28;;;8.65;76.91
73267;BME280;61495;53.400;7.608;2023-05-17T01:09:04;102202.44;;;8.60;76.95
73267;BME280;61495;53.400;7.608;2023-05-17T01:14:26;102218.28;;;8.62;78.34
73267;BME280;61495;53.400;7.608;2023-05-17T01:16:58;102215.63;;;8.62;77.77
73267;BME280;61495;53.400;7.608;2023-05-17T01:27:39;102236.63;;;8.57;78.77
73267;BME280;61495;53.400;7.608;2023-05-17T01:30:06;102230.13;;;8.59;78.78
73267;BME280;61495;53.400;7.608;2023-05-17T01:32:34;102231.97;;;8.59;77.86
73267;BME280;61495;53.400;7.608;2023-05-17T01:34:59;102224.28;;;8.56;77.76
73267;BME280;61495;53.400;7.608;2023-05-17T01:37:25;102232.97;;;8.58;78.50
73267;BME280;61495;53.400;7.608;2023-05-17T01:39:50;102225.44;;;8.53;77.12
73267;BME280;61495;53.400;7.608;2023-05-17T01:42:23;102240.94;;;8.50;76.88
73267;BME280;61495;53.400;7.608;2023-05-17T01:50:01;102241.25;;;8.47;76.36
73267;BME280;61495;53.400;7.608;2023-05-17T01:52:37;102242.56;;;8.43;76.09
73267;BME280;61495;53.400;7.608;2023-05-17T01:55:20;102244.72;;;8.39;76.00
73267;BME280;61495;53.400;7.608;2023-05-17T01:57:51;102247.19;;;8.32;74.51
73267;BME280;61495;53.400;7.608;2023-05-17T02:00:18;102242.59;;;8.25;74.78
73267;BME280;61495;53.400;7.608;2023-05-17T02:02:45;102246.81;;;8.27;74.49
73267;BME280;61495;53.400;7.608;2023-05-17T02:05:11;102256.34;;;8.30;73.93
73267;BME280;61495;53.400;7.608;2023-05-17T02:07:36;102255.78;;;8.26;74.07
73267;BME280;61495;53.400;7.608;2023-05-17T02:10:04;102251.91;;;8.21;74.26
73267;BME280;61495;53.400;7.608;2023-05-17T02:12:29;102249.09;;;8.22;74.04
73267;BME280;61495;53.400;7.608;2023-05-17T02:14:54;102246.22;;;8.16;73.51
73267;BME280;61495;53.400;7.608;2023-05-17T02:17:20;102260.09;;;8.19;73.51
73267;BME280;61495;53.400;7.608;2023-05-17T02:19:45;102266.09;;;8.21;73.22
73267;BME280;61495;53.400;7.608;2023-05-17T02:22:10;102256.03;;;8.15;73.14
73267;BME280;61495;53.400;7.608;2023-05-17T02:24:36;102260.41;;;8.16;73.84
73267;BME280;61495;53.400;7.608;2023-05-17T02:27:01;102256.59;;;8.19;73.61
73267;BME280;61495;53.400;7.608;2023-05-17T02:29:27;102271.59;;;8.20;73.55
73267;BME280;61495;53.400;7.608;2023-05-17T02:31:53;102266.41;;;8.18;73.74
73267;BME280;61495;53.400;7.608;2023-05-17T02:34:21;102268.78;;;8.21;73.87
73267;BME280;61495;53.400;7.608;2023-05-17T02:36:47;102278.78;;;8.19;73.55
73267;BME280;61495;53.400;7.608;2023-05-17T02:39:12;102277.75;;;8.20;73.64
73267;BME280;61495;53.400;7.608;2023-05-17T02:41:38;102274.41;;;8.18;73.51
73267;BME280;61495;53.400;7.608;2023-05-17T02:44:03;102282.75;;;8.15;73.46
73267;BME280;61495;53.400;7.608;2023-05-17T02:46:29;102289.59;;;8.18;73.35
73267;BME280;61495;53.400;7.608;2023-05-17T02:48:55;102282.44;;;8.18;73.13
73267;BME280;61495;53.400;7.608;2023-05-17T02:51:20;102289.28;;;8.21;73.29
73267;BME280;61495;53.400;7.608;2023-05-17T02:53:45;102295.47;;;8.21;73.54
73267;BME280;61495;53.400;7.608;2023-05-17T02:56:11;102295.47;;;8.21;73.06
73267;BME280;61495;53.400;7.608;2023-05-17T02:58:36;102290.75;;;8.15;73.10
73267;BME280;61495;53.400;7.608;2023-05-17T03:01:02;102295.09;;;8.16;73.03
73267;BME280;61495;53.400;7.608;2023-05-17T03:03:27;102308.94;;;8.20;73.01
73267;BME280;61495;53.400;7.608;2023-05-17T03:05:53;102293.41;;;8.15;73.06
73267;BME280;61495;53.400;7.608;2023-05-17T03:08:18;102303.94;;;8.17;72.88
73267;BME280;61495;53.400;7.608;2023-05-17T03:10:43;102305.78;;;8.16;72.65
73267;BME280;61495;53.400;7.608;2023-05-17T03:13:09;102308.75;;;8.13;72.86
73267;BME280;61495;53.400;7.608;2023-05-17T03:15:35;102312.63;;;8.19;73.58
73267;BME280;61495;53.400;7.608;2023-05-17T03:18:00;102311.13;;;8.16;73.61
73267;BME280;61495;53.400;7.608;2023-05-17T03:20:25;102317.97;;;8.19;73.49
73267;BME280;61495;53.400;7.608;2023-05-17T03:22:51;102309.25;;;8.17;73.83
73267;BME280;61495;53.400;7.608;2023-05-17T03:25:16;102314.09;;;8.13;73.62
73267;BME280;61495;53.400;7.608;2023-05-17T03:27:42;102317.44;;;8.15;73.52
73267;BME280;61495;53.400;7.608;2023-05-17T03:30:07;102321.94;;;8.15;73.34
73267;BME280;61495;53.400;7.608;2023-05-17T03:32:38;102325.44;;;8.15;73.50
73267;BME280;61495;53.400;7.608;2023-05-17T03:35:04;102323.09;;;8.12;73.39
73267;BME280;61495;53.400;7.608;2023-05-17T03:37:30;102319.44;;;8.13;73.12
73267;BME280;61495;53.400;7.608;2023-05-17T03:39:55;102337.09;;;8.14;73.06
73267;BME280;61495;53.400;7.608;2023-05-17T03:42:20;102345.13;;;8.14;73.92
73267;BME280;61495;53.400;7.608;2023-05-17T03:44:46;102336.97;;;8.16;73.06
73267;BME280;61495;53.400;7.608;2023-05-17T03:47:11;102333.47;;;8.15;73.21
73267;BME280;61495;53.400;7.608;2023-05-17T03:49:36;102342.13;;;8.17;73.01
73267;BME280;61495;53.400;7.608;2023-05-17T03:52:02;102334.97;;;8.18;72.79
73267;BME280;61495;53.400;7.608;2023-05-17T03:54:27;102345.81;;;8.16;73.07
73267;BME280;61495;53.400;7.608;2023-05-17T03:56:53;102346.63;;;8.17;72.75
73267;BME280;61495;53.400;7.608;2023-05-17T03:59:18;102345.97;;;8.15;73.53
73267;BME280;61495;53.400;7.608;2023-05-17T04:01:44;102342.31;;;8.16;74.05
73267;BME280;61495;53.400;7.608;2023-05-17T04:04:10;102354.50;;;8.18;73.68
73267;BME280;61495;53.400;7.608;2023-05-17T04:06:35;102344.81;;;8.17;73.57
73267;BME280;61495;53.400;7.608;2023-05-17T04:09:01;102351.84;;;8.18;73.39
73267;BME280;61495;53.400;7.608;2023-05-17T04:11:27;102355.34;;;8.19;73.53
73267;BME280;61495;53.400;7.608;2023-05-17T04:13:53;102351.00;;;8.18;73.79
73267;BME280;61495;53.400;7.608;2023-05-17T04:16:19;102350.69;;;8.21;73.56
73267;BME280;61495;53.400;7.608;2023-05-17T04:18:45;102361.38;;;8.21;73.97
73267;BME280;61495;53.400;7.608;2023-05-17T04:21:11;102360.53;;;8.20;73.52
73267;BME280;61495;53.400;7.608;2023-05-17T04:23:36;102364.34;;;8.18;73.06
73267;BME280;61495;53.400;7.608;2023-05-17T04:26:02;102359.84;;;8.18;73.14
73267;BME280;61495;53.400;7.608;2023-05-17T04:28:29;102372.53;;;8.16;74.04
73267;BME280;61495;53.400;7.608;2023-05-17T04:30:55;102385.56;;;8.19;74.04
73267;BME280;61495;53.400;7.608;2023-05-17T04:33:20;102382.34;;;8.16;74.12
73267;BME280;61495;53.400;7.608;2023-05-17T04:35:46;102396.38;;;8.18;74.37
73267;BME280;61495;53.400;7.608;2023-05-17T04:38:12;102399.50;;;8.13;74.30
73267;BME280;61495;53.400;7.608;2023-05-17T04:40:37;102410.88;;;8.15;74.17
73267;BME280;61495;53.400;7.608;2023-05-17T04:43:03;102408.94;;;8.08;74.08
73267;BME280;61495;53.400;7.608;2023-05-17T04:45:28;102413.69;;;8.14;74.11
73267;BME280;61495;53.400;7.608;2023-05-17T04:47:55;102415.22;;;8.16;74.17
73267;BME280;61495;53.400;7.608;2023-05-17T04:50:20;102422.94;;;8.19;73.92
73267;BME280;61495;53.400;7.608;2023-05-17T04:52:46;102419.97;;;8.22;73.79
73267;BME280;61495;53.400;7.608;2023-05-17T04:55:11;102421.91;;;8.20;74.19
73267;BME280;61495;53.400;7.608;2023-05-17T04:57:37;102434.56;;;8.28;73.76
73267;BME280;61495;53.400;7.608;2023-05-17T05:00:03;102435.38;;;8.28;73.63
73267;BME280;61495;53.400;7.608;2023-05-17T05:02:32;102450.94;;;8.33;73.76
73267;BME280;61495;53.400;7.608;2023-05-17T05:04:58;102449.38;;;8.40;73.28
73267;BME280;61495;53.400;7.608;2023-05-17T05:07:23;102451.56;;;8.45;71.89
73267;BME280;61495;53.400;7.608;2023-05-17T05:09:49;102439.72;;;8.65;71.35
73267;BME280;61495;53.400;7.608;2023-05-17T05:12:15;102447.06;;;8.88;68.94
73267;BME280;61495;53.400;7.608;2023-05-17T05:14:40;102456.06;;;9.05;69.57
73267;BME280;61495;53.400;7.608;2023-05-17T05:17:06;102454.81;;;9.17;68.69
73267;BME280;61495;53.400;7.608;2023-05-17T05:19:32;102449.59;;;9.16;68.07
73267;BME280;61495;53.400;7.608;2023-05-17T05:21:57;102459.75;;;9.12;68.54
73267;BME280;61495;53.400;7.608;2023-05-17T05:24:23;102465.81;;;9.14;67.72
73267;BME280;61495;53.400;7.608;2023-05-17T05:26:48;102465.81;;;9.14;69.04
73267;BME280;61495;53.400;7.608;2023-05-17T05:29:13;102475.34;;;9.17;67.92
73267;BME280;61495;53.400;7.608;2023-05-17T05:31:39;102478.66;;;9.11;68.13
73267;BME280;61495;53.400;7.608;2023-05-17T05:34:05;102475.50;;;9.15;68.36
73267;BME280;61495;53.400;7.608;2023-05-17T05:36:30;102477.84;;;9.18;68.62
73267;BME280;61495;53.400;7.608;2023-05-17T05:38:56;102482.03;;;9.21;68.83
73267;BME280;61495;53.400;7.608;2023-05-17T05:41:21;102483.72;;;9.22;68.93
73267;BME280;61495;53.400;7.608;2023-05-17T05:43:46;102486.25;;;9.23;70.02
73267;BME280;61495;53.400;7.608;2023-05-17T05:46:12;102502.31;;;9.23;70.00
73267;BME280;61495;53.400;7.608;2023-05-17T05:48:37;102494.59;;;9.20;68.85
73267;BME280;61495;53.400;7.608;2023-05-17T05:51:06;102497.94;;;9.22;69.18
73267;BME280;61495;53.400;7.608;2023-05-17T05:53:31;102503.97;;;9.24;69.34
73267;BME280;61495;53.400;7.608;2023-05-17T05:55:56;102507.34;;;9.26;69.87
73267;BME280;61495;53.400;7.608;2023-05-17T05:58:22;102508.38;;;9.33;70.29
73267;BME280;61495;53.400;7.608;2023-05-17T06:00:48;102506.06;;;9.38;70.49
73267;BME280;61495;53.400;7.608;2023-05-17T06:03:23;102498.34;;;9.35;69.70
73267;BME280;61495;53.400;7.608;2023-05-17T06:05:49;102504.75;;;9.42;70.06
73267;BME280;61495;53.400;7.608;2023-05-17T06:08:15;102505.25;;;9.38;69.61
73267;BME280;61495;53.400;7.608;2023-05-17T06:10:40;102511.72;;;9.35;68.84
73267;BME280;61495;53.400;7.608;2023-05-17T06:13:05;102515.94;;;9.38;68.80
73267;BME280;61495;53.400;7.608;2023-05-17T06:15:31;102508.38;;;9.33;68.83
73267;BME280;61495;53.400;7.608;2023-05-17T06:17:56;102519.81;;;9.43;68.90
73267;BME280;61495;53.400;7.608;2023-05-17T06:20:22;102518.97;;;9.43;68.31
73267;BME280;61495;53.400;7.608;2023-05-17T06:22:48;102525.84;;;9.45;68.98
73267;BME280;61495;53.400;7.608;2023-05-17T06:25:14;102520.50;;;9.45;68.91
73267;BME280;61495;53.400;7.608;2023-05-17T06:27:39;102537.91;;;9.49;68.03
73267;BME280;61495;53.400;7.608;2023-05-17T06:30:05;102540.28;;;9.53;67.83
73267;BME280;61495;53.400;7.608;2023-05-17T06:32:40;102541.13;;;9.53;68.24
73267;BME280;61495;53.400;7.608;2023-05-17T06:35:06;102545.63;;;9.53;68.83
73267;BME280;61495;53.400;7.608;2023-05-17T06:37:32;102557.97;;;9.54;68.58
73267;BME280;61495;53.400;7.608;2023-05-17T06:40:02;102561.69;;;9.53;68.61
73267;BME280;61495;53.400;7.608;2023-05-17T06:42:29;102558.50;;;9.57;68.23
73267;BME280;61495;53.400;7.608;2023-05-17T06:44:54;102560.66;;;9.54;67.77
73267;BME280;61495;53.400;7.608;2023-05-17T06:47:20;102568.38;;;9.57;67.52
73267;BME280;61495;53.400;7.608;2023-05-17T06:49:45;102579.06;;;9.57;67.46
73267;BME280;61495;53.400;7.608;2023-05-17T06:52:10;102564.97;;;9.46;67.72
73267;BME280;61495;53.400;7.608;2023-05-17T06:54:36;102583.59;;;9.56;67.67
73267;BME280;61495;53.400;7.608;2023-05-17T06:57:01;102592.09;;;9.52;67.81
73267;BME280;61495;53.400;7.608;2023-05-17T06:59:27;102589.28;;;9.53;67.61
73267;BME280;61495;53.400;7.608;2023-05-17T07:01:53;102593.16;;;9.59;68.08
73267;BME280;61495;53.400;7.608;2023-05-17T07:04:18;102592.31;;;9.58;67.55
73267;BME280;61495;53.400;7.608;2023-05-17T07:06:45;102592.84;;;9.62;67.63
73267;BME280;61495;53.400;7.608;2023-05-17T07:09:11;102597.41;;;9.69;67.06
73267;BME280;61495;53.400;7.608;2023-05-17T07:11:36;102616.34;;;9.76;66.60
73267;BME280;61495;53.400;7.608;2023-05-17T07:14:02;102598.97;;;9.80;66.83
73267;BME280;61495;53.400;7.608;2023-05-17T07:16:27;102609.88;;;9.86;64.88
73267;BME280;61495;53.400;7.608;2023-05-17T07:18:52;102611.22;;;9.82;64.02
73267;BME280;61495;53.400;7.608;2023-05-17T07:21:18;102614.03;;;9.81;63.15
73267;BME280;61495;53.400;7.608;2023-05-17T07:23:43;102613.19;;;9.80;62.71
73267;BME280;61495;53.400;7.608;2023-05-17T07:26:09;102619.41;;;9.89;62.16
73267;BME280;61495;53.400;7.608;2023-05-17T07:28:34;102614.78;;;9.91;62.79
73267;BME280;61495;53.400;7.608;2023-05-17T07:30:59;102630.19;;;9.97;62.55
73267;BME280;61495;53.400;7.608;2023-05-17T07:33:26;102624.66;;;9.98;61.03
73267;BME280;61495;53.400;7.608;2023-05-17T07:35:51;102621.84;;;10.00;61.64
73267;BME280;61495;53.400;7.608;2023-05-17T07:38:16;102623.88;;;10.06;61.76
73267;BME280;61495;53.400;7.608;2023-05-17T07:40:42;102630.59;;;10.10;62.86
73267;BME280;61495;53.400;7.608;2023-05-17T07:43:07;102632.84;;;10.15;61.93
73267;BME280;61495;53.400;7.608;2023-05-17T07:45:33;102636.19;;;10.17;62.29
73267;BME280;61495;53.400;7.608;2023-05-17T07:47:58;102642.09;;;10.28;62.80
73267;BME280;61495;53.400;7.608;2023-05-17T07:50:23;102630.38;;;10.29;62.84
73267;BME280;61495;53.400;7.608;2023-05-17T07:52:49;102630.59;;;10.36;62.66
73267;BME280;61495;53.400;7.608;2023-05-17T07:55:14;102633.09;;;10.37;63.75
73267;BME280;61495;53.400;7.608;2023-05-17T07:57:39;102649.56;;;10.50;62.89
73267;BME280;61495;53.400;7.608;2023-05-17T08:00:05;102650.91;;;10.54;63.14
73267;BME280;61495;53.400;7.608;2023-05-17T08:02:42;102653.31;;;10.66;62.58
73267;BME280;61495;53.400;7.608;2023-05-17T08:05:07;102645.44;;;10.72;63.08
73267;BME280;61495;53.400;7.608;2023-05-17T08:07:33;102652.00;;;10.78;62.89
73267;BME280;61495;53.400;7.608;2023-05-17T08:09:58;102642.97;;;10.87;63.31
73267;BME280;61495;53.400;7.608;2023-05-17T08:12:23;102671.97;;;10.91;61.95
73267;BME280;61495;53.400;7.608;2023-05-17T08:14:49;102660.06;;;10.86;61.64
73267;BME280;61495;53.400;7.608;2023-05-17T08:17:14;102664.41;;;10.79;60.26
73267;BME280;61495;53.400;7.608;2023-05-17T08:19:40;102674.13;;;10.88;61.09
73267;BME280;61495;53.400;7.608;2023-05-17T08:22:05;102660.41;;;10.99;61.68
73267;BME280;61495;53.400;7.608;2023-05-17T08:24:30;102665.69;;;11.25;62.97
73267;BME280;61495;53.400;7.608;2023-05-17T08:26:56;102666.66;;;11.32;62.67
73267;BME280;61495;53.400;7.608;2023-05-17T08:29:21;102665.16;;;11.37;63.49
73267;BME280;61495;53.400;7.608;2023-05-17T08:31:46;102665.00;;;11.39;62.22
73267;BME280;61495;53.400;7.608;2023-05-17T08:34:12;102662.13;;;11.40;61.44
73267;BME280;61495;53.400;7.608;2023-05-17T08:36:37;102661.31;;;11.40;61.53
73267;BME280;61495;53.400;7.608;2023-05-17T08:39:03;102672.38;;;11.45;61.75
73267;BME280;61495;53.400;7.608;2023-05-17T08:41:29;102669.84;;;11.43;61.89
73267;BME280;61495;53.400;7.608;2023-05-17T08:43:55;102675.56;;;11.40;60.60
73267;BME280;61495;53.400;7.608;2023-05-17T08:46:24;102674.91;;;11.30;61.30
73267;BME280;61495;53.400;7.608;2023-05-17T08:48:51;102685.28;;;11.49;62.23
73267;BME280;61495;53.400;7.608;2023-05-17T08:51:18;102690.03;;;11.72;62.97
73267;BME280;61495;53.400;7.608;2023-05-17T08:53:44;102679.25;;;12.04;65.90
73267;BME280;61495;53.400;7.608;2023-05-17T08:56:13;102690.16;;;11.94;61.88
73267;BME280;61495;53.400;7.608;2023-05-17T08:58:41;102686.31;;;11.89;61.40
73267;BME280;61495;53.400;7.608;2023-05-17T09:01:07;102670.19;;;11.97;61.83
73267;BME280;61495;53.400;7.608;2023-05-17T09:03:34;102683.88;;;12.34;62.94
73267;BME280;61495;53.400;7.608;2023-05-17T09:06:00;102679.66;;;12.78;62.65
73267;BME280;61495;53.400;7.608;2023-05-17T09:08:27;102677.69;;;12.95;61.75
73267;BME280;61495;53.400;7.608;2023-05-17T09:10:53;102690.94;;;13.05;61.73
73267;BME280;61495;53.400;7.608;2023-05-17T09:13:18;102699.66;;;13.07;59.84
73267;BME280;61495;53.400;7.608;2023-05-17T09:15:46;102691.66;;;12.99;57.52
73267;BME280;61495;53.400;7.608;2023-05-17T09:18:12;102702.41;;;12.99;57.54
73267;BME280;61495;53.400;7.608;2023-05-17T09:20:38;102715.16;;;13.05;57.13
73267;BME280;61495;53.400;7.608;2023-05-17T09:23:09;102719.91;;;12.95;57.84
73267;BME280;61495;53.400;7.608;2023-05-17T09:25:46;102720.25;;;13.00;57.59
73267;BME280;61495;53.400;7.608;2023-05-17T09:28:12;102714.84;;;13.00;58.23
73267;BME280;61495;53.400;7.608;2023-05-17T09:30:38;102722.25;;;12.98;58.79
73267;BME280;61495;53.400;7.608;2023-05-17T09:33:08;102718.59;;;12.91;58.02
73267;BME280;61495;53.400;7.608;2023-05-17T09:35:34;102739.81;;;12.86;58.12
73267;BME280;61495;53.400;7.608;2023-05-17T09:38:12;102730.72;;;12.87;57.67
73267;BME280;61495;53.400;7.608;2023-05-17T09:40:42;102748.00;;;12.92;57.75
73267;BME280;61495;53.400;7.608;2023-05-17T09:43:09;102748.59;;;12.79;57.11
73267;BME280;61495;53.400;7.608;2023-05-17T09:45:35;102749.94;;;12.75;57.59
73267;BME280;61495;53.400;7.608;2023-05-17T09:48:14;102750.78;;;12.76;57.98
73267;BME280;61495;53.400;7.608;2023-05-17T09:50:48;102738.47;;;12.81;57.54
73267;BME280;61495;53.400;7.608;2023-05-17T09:55:54;102746.84;;;12.87;57.12
73267;BME280;61495;53.400;7.608;2023-05-17T09:58:21;102726.09;;;13.03;57.44
73267;BME280;61495;53.400;7.608;2023-05-17T10:00:51;102740.38;;;13.12;56.30
73267;BME280;61495;53.400;7.608;2023-05-17T10:03:36;102752.72;;;13.29;57.41
73267;BME280;61495;53.400;7.608;2023-05-17T10:06:05;102744.34;;;13.24;57.24
73267;BME280;61495;53.400;7.608;2023-05-17T10:08:32;102753.72;;;13.28;57.73
73267;BME280;61495;53.400;7.608;2023-05-17T10:11:07;102755.47;;;13.21;56.62
73267;BME280;61495;53.400;7.608;2023-05-17T10:13:35;102755.34;;;13.14;56.83
73267;BME280;61495;53.400;7.608;2023-05-17T10:16:01;102750.78;;;13.07;57.19
73267;BME280;61495;53.400;7.608;2023-05-17T10:18:28;102754.19;;;13.09;56.35
73267;BME280;61495;53.400;7.608;2023-05-17T10:20:55;102740.78;;;12.93;57.39
73267;BME280;61495;53.400;7.608;2023-05-17T10:23:21;102741.91;;;13.06;57.39
73267;BME280;61495;53.400;7.608;2023-05-17T10:25:47;102755.84;;;13.18;58.09
73267;BME280;61495;53.400;7.608;2023-05-17T10:28:15;102762.41;;;13.15;57.84
73267;BME280;61495;53.400;7.608;2023-05-17T10:30:42;102756.75;;;13.33;58.07
73267;BME280;61495;53.400;7.608;2023-05-17T10:33:08;102758.03;;;13.68;59.50
73267;BME280;61495;53.400;7.608;2023-05-17T10:35:34;102746.22;;;13.91;61.68
73267;BME280;61495;53.400;7.608;2023-05-17T10:38:00;102754.50;;;14.05;60.54
73267;BME280;61495;53.400;7.608;2023-05-17T10:40:28;102758.22;;;14.04;58.72
73267;BME280;61495;53.400;7.608;2023-05-17T10:42:55;102750.38;;;13.94;58.72
73267;BME280;61495;53.400;7.608;2023-05-17T10:45:23;102746.84;;;13.93;57.15
73267;BME280;61495;53.400;7.608;2023-05-17T10:47:50;102754.84;;;14.02;57.58
73267;BME280;61495;53.400;7.608;2023-05-17T10:50:23;102769.13;;;14.10;57.32
73267;BME280;61495;53.400;7.608;2023-05-17T10:52:50;102759.34;;;14.09;56.76
73267;BME280;61495;53.400;7.608;2023-05-17T10:55:20;102752.91;;;14.33;59.05
73267;BME280;61495;53.400;7.608;2023-05-17T11:00:39;102744.34;;;14.73;59.37
73267;BME280;61495;53.400;7.608;2023-05-17T11:03:21;102764.94;;;14.45;56.16
73267;BME280;61495;53.400;7.608;2023-05-17T11:06:12;102764.03;;;14.30;57.01
73267;BME280;61495;53.400;7.608;2023-05-17T11:08:45;102762.81;;;14.18;54.90
73267;BME280;61495;53.400;7.608;2023-05-17T11:11:29;102756.84;;;14.22;54.57
73267;BME280;61495;53.400;7.608;2023-05-17T11:13:55;102762.84;;;14.32;55.07
73267;BME280;61495;53.400;7.608;2023-05-17T11:16:33;102760.00;;;14.34;55.28
73267;BME280;61495;53.400;7.608;2023-05-17T11:19:06;102763.50;;;14.49;55.19
73267;BME280;61495;53.400;7.608;2023-05-17T11:21:32;102747.72;;;14.46;54.68
73267;BME280;61495;53.400;7.608;2023-05-17T11:24:00;102754.78;;;14.62;54.92
73267;BME280;61495;53.400;7.608;2023-05-17T11:26:32;102774.03;;;14.59;54.53
73267;BME280;61495;53.400;7.608;2023-05-17T11:29:06;102766.50;;;14.54;53.26
73267;BME280;61495;53.400;7.608;2023-05-17T11:31:34;102758.31;;;14.62;53.34
73267;BME280;61495;53.400;7.608;2023-05-17T11:34:02;102758.41;;;14.54;52.34
73267;BME280;61495;53.400;7.608;2023-05-17T11:36:27;102766.31;;;14.70;53.54
73267;BME280;61495;53.400;7.608;2023-05-17T11:41:37;102756.63;;;14.61;52.35
73267;BME280;61495;53.400;7.608;2023-05-17T11:44:05;102764.44;;;14.71;52.95
73267;BME280;61495;53.400;7.608;2023-05-17T11:46:31;102763.91;;;14.75;52.47
73267;BME280;61495;53.400;7.608;2023-05-17T11:48:58;102759.03;;;14.85;53.27
73267;BME280;61495;53.400;7.608;2023-05-17T11:51:24;102764.00;;;14.96;53.81
73267;BME280;61495;53.400;7.608;2023-05-17T11:53:50;102765.00;;;14.95;52.22
73267;BME280;61495;53.400;7.608;2023-05-17T11:56:15;102767.50;;;14.97;51.98
73267;BME280;61495;53.400;7.608;2023-05-17T11:58:42;102766.06;;;15.16;52.69
73267;BME280;61495;53.400;7.608;2023-05-17T12:01:07;102779.06;;;15.27;51.99
73267;BME280;61495;53.400;7.608;2023-05-17T12:03:55;102776.59;;;15.25;51.77
73267;BME280;61495;53.400;7.608;2023-05-17T12:06:24;102762.41;;;15.59;54.53
73267;BME280;61495;53.400;7.608;2023-05-17T12:08:50;102779.72;;;15.86;53.13
73267;BME280;61495;53.400;7.608;2023-05-17T12:11:16;102779.31;;;15.82;52.91
73267;BME280;61495;53.400;7.608;2023-05-17T12:13:43;102773.75;;;15.69;53.68
73267;BME280;61495;53.400;7.608;2023-05-17T12:16:14;102770.34;;;15.61;50.42
73267;BME280;61495;53.400;7.608;2023-05-17T12:18:41;102778.31;;;15.69;51.79
73267;BME280;61495;53.400;7.608;2023-05-17T12:21:09;102776.84;;;15.87;51.92
73267;BME280;61495;53.400;7.608;2023-05-17T12:23:35;102779.56;;;15.87;52.39
73267;BME280;61495;53.400;7.608;2023-05-17T12:26:22;102772.28;;;15.88;51.28
73267;BME280;61495;53.400;7.608;2023-05-17T12:28:57;102778.00;;;15.78;50.02
73267;BME280;61495;53.400;7.608;2023-05-17T12:31:30;102776.84;;;15.87;50.31
73267;BME280;61495;53.400;7.608;2023-05-17T12:33:57;102768.91;;;15.86;51.80
73267;BME280;61495;53.400;7.608;2023-05-17T12:36:24;102766.78;;;16.02;50.55
73267;BME280;61495;53.400;7.608;2023-05-17T12:38:52;102769.81;;;16.14;51.20
73267;BME280;61495;53.400;7.608;2023-05-17T12:41:19;102768.31;;;16.11;51.36
73267;BME280;61495;53.400;7.608;2023-05-17T12:43:47;102762.66;;;16.06;50.79
73267;BME280;61495;53.400;7.608;2023-05-17T12:46:16;102764.16;;;16.09;50.96
73267;BME280;61495;53.400;7.608;2023-05-17T12:48:43;102765.81;;;16.10;49.76
73267;BME280;61495;53.400;7.608;2023-05-17T12:51:11;102756.59;;;16.04;50.17
73267;BME280;61495;53.400;7.608;2023-05-17T12:53:38;102761.19;;;16.04;49.12
73267;BME280;61495;53.400;7.608;2023-05-17T12:56:05;102762.94;;;15.90;49.57
73267;BME280;61495;53.400;7.608;2023-05-17T12:58:31;102765.50;;;15.77;50.01
73267;BME280;61495;53.400;7.608;2023-05-17T13:01:01;102766.22;;;15.86;50.23
73267;BME280;61495;53.400;7.608;2023-05-17T13:03:27;102780.31;;;15.60;50.11
73267;BME280;61495;53.400;7.608;2023-05-17T13:06:07;102779.69;;;15.43;50.05
73267;BME280;61495;53.400;7.608;2023-05-17T13:08:34;102781.31;;;15.38;51.91
73267;BME280;61495;53.400;7.608;2023-05-17T13:11:09;102777.81;;;15.23;51.32
73267;BME280;61495;53.400;7.608;2023-05-17T13:13:35;102782.28;;;15.16;52.24
73267;BME280;61495;53.400;7.608;2023-05-17T13:16:01;102771.66;;;15.29;52.28
73267;BME280;61495;53.400;7.608;2023-05-17T13:18:27;102772.78;;;15.20;52.61